| time (UTC) | temp F | wind direction | speed MPH | gust MPH | rain 1hr in | rain 24hr in | rain mn in | humidity % | barometer mb |
| 20260508033047 | 58 | 144 | 1.0 | 4.0 | 0.00 | 0.00 | 0.00 | 83 | 1005.2 |
| 20260508031551 | 59 | 0 | 0.0 | 3.0 | 0.00 | 0.00 | 0.00 | 83 | 1005.3 |
| 20260508030059 | 59 | 88 | 0.0 | 2.0 | 0.00 | 0.00 | 0.00 | 83 | 1005.2 |
| 20260508024550 | 59 | 0 | 0.0 | 0.0 | 0.00 | 0.00 | 0.00 | 82 | 1005.2 |
| 20260508023047 | 59 | 0 | 0.0 | 0.0 | 0.00 | 0.00 | 0.00 | 80 | 1005.2 |
| 20260508021553 | 59 | 0 | 0.0 | 2.0 | 0.00 | 0.00 | 0.00 | 80 | 1005.2 |
| 20260508020053 | 59 | 75 | 0.0 | 3.0 | 0.00 | 0.00 | 0.00 | 80 | 1005.1 |
| 20260508014549 | 59 | 76 | 1.0 | 3.0 | 0.00 | 0.00 | 0.00 | 80 | 1005.1 |
| 20260508013051 | 59 | 0 | 0.0 | 3.0 | 0.00 | 0.00 | 0.00 | 80 | 1005.2 |
| 20260508011546 | 60 | 75 | 0.0 | 4.0 | 0.00 | 0.00 | 0.00 | 80 | 1005.2 |
| 20260508010046 | 60 | 73 | 1.0 | 4.0 | 0.00 | 0.00 | 0.00 | 79 | 1005.1 |
| 20260508004551 | 61 | 70 | 1.0 | 5.0 | 0.00 | 0.00 | 0.00 | 78 | 1005.0 |
| 20260508003049 | 62 | 64 | 3.0 | 6.0 | 0.00 | 0.00 | 0.00 | 78 | 1004.9 |
| 20260508001551 | 63 | 48 | 1.0 | 5.0 | 0.00 | 0.00 | 0.00 | 77 | 1005.1 |
| 20260508000048 | 65 | 30 | 2.0 | 5.0 | 0.00 | 0.00 | 0.00 | 76 | 1005.1 |
| 20260507234559 | 66 | 314 | 1.0 | 3.0 | 0.00 | 0.00 | 0.00 | 75 | 1005.1 |
| 20260507233046 | 66 | 314 | 2.0 | 6.0 | 0.00 | 0.00 | 0.00 | 73 | 1005.1 |
| 20260507231556 | 66 | 310 | 2.0 | 4.0 | 0.00 | 0.00 | 0.00 | 73 | 1005.0 |
| 20260507230049 | 67 | 309 | 1.0 | 5.0 | 0.00 | 0.00 | 0.00 | 72 | 1005.0 |
| 20260507224551 | 67 | 316 | 3.0 | 6.0 | 0.00 | 0.00 | 0.00 | 71 | 1004.9 |
| 20260507223055 | 67 | 0 | 2.0 | 9.0 | 0.00 | 0.00 | 0.00 | 70 | 1004.8 |
| 20260507221550 | 68 | 307 | 2.0 | 5.0 | 0.00 | 0.00 | 0.00 | 69 | 1004.9 |
| 20260507220046 | 67 | 279 | 0.0 | 3.0 | 0.00 | 0.00 | 0.00 | 70 | 1005.0 |
| 20260507214557 | 68 | 0 | 0.0 | 5.0 | 0.00 | 0.00 | 0.00 | 70 | 1004.9 |
| 20260507213049 | 67 | 0 | 1.0 | 4.0 | 0.00 | 0.00 | 0.00 | 71 | 1004.9 |
| 20260507211546 | 67 | 245 | 1.0 | 3.0 | 0.00 | 0.00 | 0.00 | 72 | 1004.9 |
| 20260507210052 | 68 | 245 | 0.0 | 3.0 | 0.00 | 0.00 | 0.00 | 71 | 1005.1 |
| 20260507204547 | 69 | 243 | 3.0 | 8.0 | 0.00 | 0.00 | 0.00 | 68 | 1005.3 |
| 20260507203057 | 70 | 0 | 0.0 | 5.0 | 0.00 | 0.00 | 0.00 | 63 | 1005.4 |
| 20260507201544 | 70 | 306 | 1.0 | 4.0 | 0.00 | 0.00 | 0.00 | 63 | 1005.3 |
| 20260507200052 | 71 | 0 | 0.0 | 2.0 | 0.00 | 0.00 | 0.00 | 62 | 1005.4 |
| 20260507194550 | 71 | 293 | 2.0 | 5.0 | 0.00 | 0.00 | 0.00 | 61 | 1005.4 |
| 20260507193054 | 71 | 0 | 2.0 | 11.0 | 0.00 | 0.00 | 0.00 | 62 | 1005.2 |
| 20260507191545 | 70 | 0 | 0.0 | 3.0 | 0.00 | 0.00 | 0.00 | 65 | 1005.3 |
| 20260507190045 | 70 | 0 | 0.0 | 3.0 | 0.00 | 0.00 | 0.00 | 65 | 1005.2 |
| 20260507184544 | 70 | 0 | 0.0 | 3.0 | 0.00 | 0.00 | 0.00 | 64 | 1004.9 |
| 20260507183054 | 71 | 0 | 0.0 | 2.0 | 0.00 | 0.00 | 0.00 | 62 | 1004.7 |
| 20260507181549 | 72 | 217 | 1.0 | 4.0 | 0.00 | 0.00 | 0.00 | 58 | 1004.6 |
| 20260507180047 | 73 | 0 | 0.0 | 0.0 | 0.00 | 0.00 | 0.00 | 54 | 1004.4 |
| 20260507174551 | 74 | 0 | 0.0 | 0.0 | 0.00 | 0.00 | 0.00 | 51 | 1004.1 |
| 20260507173100 | 74 | 0 | 0.0 | 0.0 | 0.00 | 0.00 | 0.00 | 51 | 1004.0 |
| 20260507171607 | 75 | 0 | 0.0 | 0.0 | 0.00 | 0.00 | 0.00 | 50 | 1003.9 |
| 20260507170056 | 76 | 0 | 0.0 | 2.0 | 0.00 | 0.00 | 0.00 | 49 | 1004.0 |
| 20260507164602 | 76 | 0 | 0.0 | 1.0 | 0.00 | 0.00 | 0.00 | 48 | 1003.9 |
| 20260507163049 | 77 | 0 | 0.0 | 4.0 | 0.00 | 0.00 | 0.00 | 46 | 1003.9 |
| 20260507161553 | 77 | 218 | 0.0 | 4.0 | 0.00 | 0.00 | 0.00 | 45 | 1004.0 |
| 20260507160059 | 78 | 214 | 0.0 | 5.0 | 0.00 | 0.00 | 0.00 | 44 | 1004.0 |
| 20260507154544 | 77 | 0 | 1.0 | 5.0 | 0.00 | 0.00 | 0.00 | 43 | 1003.9 |
| 20260507153050 | 77 | 150 | 1.0 | 5.0 | 0.00 | 0.00 | 0.00 | 43 | 1003.9 |
| 20260507151551 | 80 | 0 | 1.0 | 6.0 | 0.00 | 0.00 | 0.00 | 39 | 1004.0 |
| 20260507150059 | 79 | 163 | 0.0 | 6.0 | 0.00 | 0.00 | 0.00 | 41 | 1004.2 |
| 20260507144550 | 79 | 0 | 1.0 | 4.0 | 0.00 | 0.00 | 0.00 | 39 | 1004.1 |
| 20260507143103 | 78 | 183 | 1.0 | 5.0 | 0.00 | 0.00 | 0.00 | 41 | 1004.1 |
| 20260507141555 | 77 | 144 | 3.0 | 8.0 | 0.00 | 0.00 | 0.00 | 44 | 1004.4 |
| 20260507140048 | 78 | 142 | 0.0 | 8.0 | 0.00 | 0.00 | 0.00 | 44 | 1004.4 |
| 20260507134557 | 77 | 142 | 3.0 | 7.0 | 0.00 | 0.00 | 0.00 | 45 | 1004.6 |
| 20260507133048 | 76 | 124 | 3.0 | 9.0 | 0.00 | 0.00 | 0.00 | 46 | 1004.6 |
| 20260507131602 | 76 | 148 | 3.0 | 9.0 | 0.00 | 0.00 | 0.00 | 48 | 1004.7 |
| 20260507130055 | 77 | 112 | 2.0 | 9.0 | 0.00 | 0.00 | 0.00 | 47 | 1004.9 |
| 20260507124555 | 77 | 158 | 2.0 | 7.0 | 0.00 | 0.00 | 0.00 | 46 | 1004.9 |
| 20260507123056 | 77 | 131 | 3.0 | 8.0 | 0.00 | 0.00 | 0.00 | 44 | 1005.1 |
| 20260507121558 | 77 | 81 | 1.0 | 8.0 | 0.00 | 0.00 | 0.00 | 46 | 1005.2 |
| 20260507120048 | 75 | 130 | 6.0 | 9.0 | 0.00 | 0.00 | 0.00 | 44 | 1005.3 |
| 20260507114551 | 75 | 133 | 2.0 | 7.0 | 0.00 | 0.00 | 0.00 | 46 | 1005.4 |
| 20260507113045 | 75 | 17 | 3.0 | 11.0 | 0.00 | 0.00 | 0.00 | 44 | 1005.4 |
| 20260507111544 | 74 | 121 | 3.0 | 10.0 | 0.00 | 0.00 | 0.00 | 45 | 1005.5 |
| 20260507104547 | 75 | 167 | 1.0 | 10.0 | 0.00 | 0.00 | 0.00 | 42 | 1005.6 |
| 20260507103050 | 75 | 128 | 2.0 | 9.0 | 0.00 | 0.00 | 0.00 | 42 | 1005.8 |
| 20260507101550 | 73 | 107 | 4.0 | 11.0 | 0.00 | 0.00 | 0.00 | 46 | 1005.8 |
| 20260507100054 | 74 | 176 | 2.0 | 7.0 | 0.00 | 0.00 | 0.00 | 43 | 1005.9 |
| 20260507094544 | 72 | 151 | 2.0 | 10.0 | 0.00 | 0.00 | 0.00 | 46 | 1005.9 |
| 20260507093042 | 71 | 115 | 6.0 | 9.0 | 0.00 | 0.00 | 0.00 | 42 | 1006.1 |
| 20260507091608 | 71 | 115 | 5.0 | 9.0 | 0.00 | 0.00 | 0.00 | 47 | 1006.1 |
| 20260507090050 | 71 | 128 | 1.0 | 8.0 | 0.00 | 0.00 | 0.00 | 46 | 1006.1 |
| 20260507084557 | 70 | 128 | 5.0 | 9.0 | 0.00 | 0.00 | 0.00 | 46 | 1006.1 |
| 20260507083053 | 69 | 111 | 5.0 | 11.0 | 0.00 | 0.00 | 0.00 | 46 | 1006.0 |
| 20260507081550 | 69 | 205 | 4.0 | 10.0 | 0.00 | 0.00 | 0.00 | 46 | 1006.0 |
| 20260507080049 | 68 | 132 | 4.0 | 10.0 | 0.00 | 0.00 | 0.00 | 45 | 1006.0 |
| 20260507074550 | 67 | 115 | 6.0 | 11.0 | 0.00 | 0.00 | 0.00 | 46 | 1005.8 |
| 20260507073051 | 68 | 165 | 2.0 | 7.0 | 0.00 | 0.00 | 0.00 | 48 | 1005.9 |
| 20260507071546 | 66 | 0 | 1.0 | 7.0 | 0.00 | 0.00 | 0.00 | 52 | 1006.1 |
| 20260507070100 | 64 | 91 | 1.0 | 9.0 | 0.00 | 0.00 | 0.00 | 54 | 1006.1 |
| 20260507064548 | 63 | 133 | 1.0 | 9.0 | 0.00 | 0.00 | 0.00 | 57 | 1006.0 |
| 20260507063051 | 61 | 0 | 3.0 | 7.0 | 0.00 | 0.00 | 0.00 | 60 | 1006.0 |
| 20260507061547 | 61 | 38 | 2.0 | 5.0 | 0.00 | 0.00 | 0.00 | 61 | 1005.9 |
| 20260507054554 | 59 | 134 | 2.0 | 7.0 | 0.00 | 0.00 | 0.00 | 65 | 1006.2 |
| 20260507053051 | 58 | 118 | 2.0 | 6.0 | 0.00 | 0.00 | 0.00 | 68 | 1006.0 |
| 20260507051549 | 56 | 124 | 3.0 | 10.0 | 0.00 | 0.00 | 0.00 | 70 | 1006.0 |
| 20260507050050 | 55 | 110 | 4.0 | 9.0 | 0.00 | 0.00 | 0.00 | 72 | 1006.0 |
| 20260507044548 | 54 | 128 | 4.0 | 9.0 | 0.00 | 0.00 | 0.00 | 74 | 1006.0 |
| 20260507043047 | 54 | 111 | 2.0 | 7.0 | 0.00 | 0.00 | 0.00 | 75 | 1006.0 |
| 20260507041547 | 52 | 0 | 3.0 | 8.0 | 0.00 | 0.00 | 0.00 | 77 | 1005.7 |
| 20260507040045 | 53 | 84 | 1.0 | 7.0 | 0.00 | 0.00 | 0.00 | 77 | 1005.6 |
| 20260507034558 | 52 | 36 | 4.0 | 8.0 | 0.00 | 0.00 | 0.00 | 77 | 1005.7 |